KPYM

Plymouth Municipal Airport

Plymouth, Massachusetts, USA
METAR KPYM 231052Z AUTO 24005KT 10SM BKN007 OVC110 14/13 A2988 RMK AO2 SLP117 T01390128
Observed Flight Rules
May-23 @ 10:52 UTC (10 minutes ago) Instrument Flight Rules
Wind Visibility Clouds
240° at 5 knots 10 miles
  • Broken at 700' AGL
  • Overcast at 11,000' AGL
Temperatures Readings
Current 14°C / 57°F
Dewpoint 13°C / 55°F
Humidity 94%
Altimeter 29.88" Hg
Pressure 1011.7 hPa
Elevation 43
METAR KPYM 231052Z AUTO 24005KT 10SM BKN007 OVC110 14/13 A2988 RMK AO2 SLP117 T01390128
Observed Flight Rules
May-23 @ 10:52 UTC
(10 minutes ago)
IFR
Wind Visibility
240° at 5 knots 10 miles
Clouds
  • Broken at 700' AGL
  • Overcast at 11,000' AGL
Temperature Dewpoint
14°C / 57°F 13°C / 55°F
Humidity Altimeter Pressure
94% 29.88" Hg 1011.7 hPa